Time;durP1;ratioP1;P1;durP2;ratioP2;P2;SDS_P1;SDS_P2;PMS_P1;PMS_P2;Temp;Humidity;BMP_temperature;BMP_pressure;BME280_temperature;BME280_humidity;BME280_pressure;Samples;Min_cycle;Max_cycle;Signal;HPM_P1;HPM_P2
2022/05/02 00:00:20;;;;;;;7.63;4.45;;;;;;;13.86;67.68;100110.28;5122225;28;20228;-65
2022/05/02 00:02:46;;;;;;;8.90;5.13;;;;;;;13.93;67.14;100105.91;5120487;28;20039;-65
2022/05/02 00:05:12;;;;;;;10.55;5.78;;;;;;;14.01;66.57;100108.53;5121313;28;20043;-65
2022/05/02 00:07:38;;;;;;;11.23;6.40;;;;;;;13.98;66.71;100097.41;5120292;28;20035;-65
2022/05/02 00:10:06;;;;;;;6.10;4.35;;;;;;;14.12;66.15;100112.63;5120552;28;20035;-65
2022/05/02 00:12:32;;;;;;;7.55;4.03;;;;;;;14.21;65.73;100097.44;5120982;28;20359;-65
2022/05/02 00:14:57;;;;;;;5.15;4.00;;;;;;;14.15;65.85;100106.94;5119385;28;20055;-65
2022/05/02 00:20:08;;;;;;;8.13;4.28;;;;;;;14.16;66.01;100113.09;5120807;28;20089;-65
2022/05/02 00:22:33;;;;;;;8.73;4.28;;;;;;;13.93;66.12;100083.78;5120711;28;20199;-65
2022/05/02 00:24:58;;;;;;;13.73;4.70;;;;;;;14.12;66.05;100111.78;5119753;28;20263;-65
2022/05/02 00:27:24;;;;;;;8.20;4.72;;;;;;;14.13;65.99;100113.47;5120859;28;20023;-65
2022/05/02 00:29:49;;;;;;;5.60;3.88;;;;;;;14.10;66.17;100116.47;5120042;28;20027;-65
2022/05/02 00:32:15;;;;;;;10.73;4.43;;;;;;;14.03;66.08;100103.84;5102743;28;20250;-67
2022/05/02 00:34:40;;;;;;;6.95;4.32;;;;;;;14.05;66.01;100098.34;5119769;28;20044;-65
2022/05/02 00:37:05;;;;;;;8.60;4.30;;;;;;;14.08;65.81;100082.03;5120393;28;20035;-65
2022/05/02 00:39:32;;;;;;;6.25;4.15;;;;;;;14.03;66.09;100077.22;5119553;28;20061;-68
2022/05/02 00:41:57;;;;;;;11.15;4.47;;;;;;;13.94;65.89;100072.97;5116696;28;20024;-65
2022/05/02 00:44:23;;;;;;;8.40;4.18;;;;;;;14.01;65.68;100075.75;5119648;28;20094;-65
2022/05/02 00:46:49;;;;;;;8.10;4.90;;;;;;;14.05;65.91;100077.88;5119116;28;20038;-65
2022/05/02 00:49:15;;;;;;;10.68;4.85;;;;;;;14.00;66.15;100077.59;5120695;28;20024;-65
2022/05/02 00:51:40;;;;;;;9.98;4.53;;;;;;;13.93;66.58;100075.81;5119048;28;20027;-65
2022/05/02 00:54:06;;;;;;;8.27;4.28;;;;;;;13.84;66.05;100068.88;5120375;28;20059;-65
2022/05/02 00:56:32;;;;;;;9.65;4.80;;;;;;;13.88;66.35;100075.50;5118459;28;20110;-67
2022/05/02 00:58:58;;;;;;;7.43;4.60;;;;;;;13.76;66.41;100083.06;5119996;28;20043;-65
2022/05/02 01:01:24;;;;;;;10.98;4.72;;;;;;;13.72;66.56;100076.41;5119897;28;20020;-65
2022/05/02 01:03:49;;;;;;;5.85;4.20;;;;;;;13.65;66.53;100083.44;5119401;28;20325;-65
2022/05/02 01:08:59;;;;;;;10.98;5.38;;;;;;;13.63;67.20;100080.94;5120282;28;20103;-67
2022/05/02 01:11:25;;;;;;;10.02;5.22;;;;;;;13.58;67.38;100077.97;5118879;28;20043;-67
2022/05/02 01:13:50;;;;;;;13.27;5.05;;;;;;;13.50;66.51;100085.97;5101174;28;20069;-65
2022/05/02 01:16:27;;;;;;;11.35;5.20;;;;;;;13.42;67.62;100086.00;5118525;28;20035;-67
2022/05/02 01:18:57;;;;;;;8.65;4.53;;;;;;;13.46;68.35;100081.16;5118793;28;20092;-67
2022/05/02 01:21:29;;;;;;;6.25;5.05;;;;;;;13.49;67.29;100083.47;5116234;28;20051;-65
2022/05/02 01:24:00;;;;;;;10.38;5.07;;;;;;;13.53;67.14;100071.53;5120495;28;20034;-65
2022/05/02 01:26:26;;;;;;;10.40;4.70;;;;;;;13.40;67.53;100072.03;5118248;28;20218;-65
2022/05/02 01:28:59;;;;;;;9.27;5.13;;;;;;;13.42;66.96;100078.03;5118400;28;20023;-65
2022/05/02 01:31:25;;;;;;;8.93;4.75;;;;;;;13.13;66.64;100069.78;5117365;28;20034;-67
2022/05/02 01:33:51;;;;;;;9.13;5.20;;;;;;;13.18;67.61;100076.28;5118294;28;20043;-67
2022/05/02 01:36:19;;;;;;;11.15;5.63;;;;;;;13.17;68.43;100074.63;5101082;28;20088;-64
2022/05/02 01:38:46;;;;;;;13.15;5.57;;;;;;;13.16;66.35;100064.13;5097231;28;20038;-67
2022/05/02 01:41:12;;;;;;;8.05;4.85;;;;;;;13.15;65.48;100068.59;5120035;28;20041;-64
2022/05/02 01:43:38;;;;;;;9.77;5.60;;;;;;;12.91;67.64;100058.03;5118418;28;20051;-65
2022/05/02 01:46:05;;;;;;;9.98;5.70;;;;;;;12.82;69.50;100067.03;5119248;28;20074;-65
2022/05/02 01:48:30;;;;;;;11.60;5.90;;;;;;;12.69;69.60;100057.72;5099842;28;20106;-65
2022/05/02 01:50:57;;;;;;;13.07;5.75;;;;;;;12.57;69.69;100042.31;5100175;28;20030;-65
2022/05/02 01:53:23;;;;;;;12.48;5.45;;;;;;;12.86;68.71;100050.56;5118647;28;20035;-65
2022/05/02 01:55:48;;;;;;;11.65;5.28;;;;;;;12.93;69.13;100048.88;5117793;28;20039;-65
2022/05/02 01:58:14;;;;;;;10.70;5.30;;;;;;;12.85;67.86;100000.25;5118563;28;20255;-67
2022/05/02 02:00:40;;;;;;;9.20;4.65;;;;;;;13.10;67.31;100029.22;5119006;28;20032;-67
2022/05/02 02:03:05;;;;;;;9.52;5.35;;;;;;;13.08;65.36;100031.22;5121435;28;20064;-67
2022/05/02 02:05:49;;;;;;;8.70;4.85;;;;;;;12.91;66.11;100026.13;5124452;27;20036;-65
2022/05/02 02:08:23;;;;;;;12.90;5.63;;;;;;;12.76;66.74;100021.53;5122508;28;20023;-65
2022/05/02 02:10:49;;;;;;;11.68;5.35;;;;;;;12.65;66.11;100021.03;5119773;28;20081;-64
2022/05/02 02:13:15;;;;;;;10.75;5.35;;;;;;;12.49;67.53;100013.09;5123748;28;20449;-65
2022/05/02 02:15:41;;;;;;;9.02;5.40;;;;;;;12.36;68.89;100003.78;5121969;27;20047;-65
2022/05/02 02:18:06;;;;;;;9.00;5.85;;;;;;;12.39;68.64;100008.75;5122933;28;20054;-65
2022/05/02 02:20:33;;;;;;;10.07;5.85;;;;;;;12.46;69.56;99990.34;5123166;28;20099;-65
2022/05/02 02:22:59;;;;;;;9.00;5.38;;;;;;;12.57;69.20;99992.66;5122285;28;20204;-64
2022/05/02 02:25:25;;;;;;;9.70;5.53;;;;;;;12.57;68.35;99994.50;5123635;28;20043;-65
2022/05/02 02:27:50;;;;;;;8.32;5.50;;;;;;;12.59;67.27;99989.84;5122188;27;20038;-64
2022/05/02 02:30:17;;;;;;;15.52;5.68;;;;;;;12.55;68.15;99989.34;5121965;28;20216;-65
2022/05/02 02:32:42;;;;;;;10.32;5.53;;;;;;;12.42;66.79;99973.06;5122807;28;20056;-64
2022/05/02 02:35:08;;;;;;;9.10;5.70;;;;;;;12.46;68.47;99990.34;5121983;28;20281;-65
2022/05/02 02:37:34;;;;;;;8.68;4.82;;;;;;;12.47;68.05;99995.47;5122782;28;20337;-65
2022/05/02 02:39:59;;;;;;;10.35;5.43;;;;;;;12.52;67.31;99991.50;5103334;28;20448;-64
2022/05/02 02:42:25;;;;;;;8.57;5.25;;;;;;;12.45;68.07;99989.50;5122963;28;20032;-65
2022/05/02 02:44:51;;;;;;;10.57;5.75;;;;;;;12.54;68.54;99992.19;5122488;28;20093;-65
2022/05/02 02:47:17;;;;;;;10.25;5.28;;;;;;;12.46;67.39;99996.47;5121503;28;20035;-65
2022/05/02 02:49:43;;;;;;;9.93;5.63;;;;;;;12.42;67.14;100000.47;5121688;28;20028;-65
2022/05/02 02:52:09;;;;;;;9.85;5.22;;;;;;;12.41;66.56;100003.28;5122193;28;20058;-65
2022/05/02 02:54:35;;;;;;;15.70;5.47;;;;;;;12.38;68.72;100000.97;5103128;28;20035;-64
2022/05/02 02:57:01;;;;;;;13.95;5.80;;;;;;;12.32;69.48;100001.63;5122257;28;20046;-65
2022/05/02 02:59:26;;;;;;;14.38;6.50;;;;;;;12.23;70.72;100003.47;5121570;28;20035;-67
2022/05/02 03:01:52;;;;;;;13.88;6.10;;;;;;;12.24;70.33;100006.94;5121521;28;20259;-65
2022/05/02 03:07:03;;;;;;;8.63;5.75;;;;;;;12.38;67.90;99999.13;5121736;28;20234;-65
2022/05/02 03:09:29;;;;;;;9.82;5.85;;;;;;;12.41;68.70;100008.59;5121633;28;20165;-65
2022/05/02 03:11:54;;;;;;;13.90;5.65;;;;;;;12.36;68.28;100000.31;5121942;28;20027;-65
2022/05/02 03:14:20;;;;;;;14.25;6.05;;;;;;;12.38;66.30;100001.78;5121035;28;20024;-65
2022/05/02 03:16:45;;;;;;;15.65;5.78;;;;;;;12.34;66.40;100018.22;5122022;28;20327;-65
2022/05/02 03:19:11;;;;;;;14.30;4.95;;;;;;;12.23;66.96;100016.72;5102941;28;20325;-65
2022/05/02 03:21:37;;;;;;;11.57;6.05;;;;;;;12.20;66.72;100022.38;5122378;28;20023;-65
2022/05/02 03:24:02;;;;;;;12.90;6.00;;;;;;;12.22;66.84;100017.72;5121636;28;20119;-65
2022/05/02 03:26:28;;;;;;;31.83;10.88;;;;;;;12.27;66.95;100020.72;5121718;28;20722;-65
2022/05/02 03:28:53;;;;;;;37.13;15.20;;;;;;;12.28;67.29;100019.72;5121021;28;20038;-65
2022/05/02 03:31:18;;;;;;;26.08;12.07;;;;;;;12.36;67.64;100025.03;5121793;28;20042;-64
2022/05/02 03:33:44;;;;;;;14.02;7.45;;;;;;;12.40;67.11;100022.88;5120885;28;20039;-65
2022/05/02 03:36:09;;;;;;;14.90;7.30;;;;;;;12.32;66.88;100028.19;5120973;28;20031;-65
2022/05/02 03:38:35;;;;;;;20.00;8.30;;;;;;;12.25;68.69;100020.06;5121969;28;20046;-65
2022/05/02 03:41:00;;;;;;;31.92;14.52;;;;;;;12.26;68.98;100019.06;5120987;28;20316;-65
2022/05/02 03:43:25;;;;;;;25.80;12.35;;;;;;;12.24;69.23;100017.56;5121344;28;20313;-65
2022/05/02 03:45:51;;;;;;;25.70;11.57;;;;;;;12.24;69.03;100014.91;5120605;27;20102;-64
2022/05/02 03:48:16;;;;;;;24.75;10.85;;;;;;;12.23;68.63;100014.06;5120703;28;20083;-64
2022/05/02 03:50:42;;;;;;;29.00;11.65;;;;;;;12.25;68.94;100021.88;5121435;28;20035;-65
2022/05/02 03:53:08;;;;;;;19.55;9.13;;;;;;;12.31;68.77;100014.06;5120906;28;20381;-65
2022/05/02 03:55:34;;;;;;;20.48;9.20;;;;;;;12.30;69.10;100017.72;5120427;28;20047;-65
2022/05/02 03:57:59;;;;;;;24.40;9.93;;;;;;;12.32;69.62;100017.56;5121010;28;20020;-65
2022/05/02 04:00:25;;;;;;;18.52;9.32;;;;;;;12.36;69.41;100010.91;5120459;28;20036;-65
2022/05/02 04:02:50;;;;;;;13.20;5.80;;;;;;;12.43;68.41;100014.56;5120711;28;20035;-65
2022/05/02 04:05:15;;;;;;;10.05;6.25;;;;;;;12.25;70.12;100009.44;5120933;28;20117;-64
2022/05/02 04:07:41;;;;;;;13.00;6.22;;;;;;;12.06;71.54;100002.63;5120256;28;20040;-64
2022/05/02 04:10:07;;;;;;;17.95;6.35;;;;;;;12.20;72.47;100005.63;5120982;28;20084;-65
2022/05/02 04:12:36;;;;;;;9.88;6.10;;;;;;;12.39;70.82;100006.09;5120270;28;20032;-64
2022/05/02 04:15:02;;;;;;;15.35;7.50;;;;;;;12.46;70.66;99996.47;5119571;28;20036;-65
2022/05/02 04:17:28;;;;;;;10.10;6.28;;;;;;;12.49;71.64;99991.84;5120090;28;20112;-65
2022/05/02 04:19:53;;;;;;;11.20;6.70;;;;;;;12.53;71.34;99990.50;5120825;28;20036;-65
2022/05/02 04:22:19;;;;;;;11.15;6.63;;;;;;;12.58;71.90;99991.66;5120131;28;20027;-65
2022/05/02 04:24:44;;;;;;;13.93;6.65;;;;;;;12.68;72.06;99987.00;5120287;28;20083;-64
2022/05/02 04:27:09;;;;;;;17.50;6.53;;;;;;;12.85;71.81;99997.59;5119739;28;20031;-67
2022/05/02 04:29:35;;;;;;;10.38;6.95;;;;;;;13.02;71.64;100001.84;5120845;28;20023;-65
2022/05/02 04:32:00;;;;;;;14.15;7.68;;;;;;;13.20;71.03;99991.00;5119721;28;20038;-65
2022/05/02 04:34:26;;;;;;;18.60;8.40;;;;;;;13.47;70.10;99998.53;5121577;28;20019;-65
2022/05/02 04:36:51;;;;;;;14.77;8.77;;;;;;;13.62;68.77;99998.63;5119918;28;20039;-65
2022/05/02 04:39:17;;;;;;;14.60;8.88;;;;;;;13.91;69.10;100003.28;5119758;28;20190;-65
2022/05/02 04:41:42;;;;;;;20.38;9.48;;;;;;;14.07;68.28;100000.50;5120098;28;20136;-65
2022/05/02 04:44:08;;;;;;;12.60;8.38;;;;;;;14.19;68.89;99996.41;5119892;28;20036;-65
2022/05/02 04:46:33;;;;;;;14.35;7.43;;;;;;;14.46;69.24;100004.84;5119516;28;20317;-65
2022/05/02 04:48:59;;;;;;;17.88;7.72;;;;;;;14.76;68.01;99998.59;5120636;28;20267;-65
2022/05/02 04:51:24;;;;;;;12.98;7.97;;;;;;;14.79;67.00;100002.72;5119355;28;20111;-65
2022/05/02 04:53:49;;;;;;;15.07;7.80;;;;;;;14.94;67.61;99995.56;5119237;28;20113;-65
2022/05/02 04:56:15;;;;;;;15.10;7.70;;;;;;;15.29;65.62;100000.13;5119754;28;20107;-65
2022/05/02 04:58:40;;;;;;;16.85;8.10;;;;;;;15.58;63.84;99999.28;5119256;28;20035;-65
2022/05/02 05:01:06;;;;;;;13.88;7.82;;;;;;;15.73;62.63;99999.25;5119356;28;20042;-65
2022/05/02 05:03:33;;;;;;;17.55;8.48;;;;;;;15.83;61.83;100004.28;5120003;28;20094;-65
2022/05/02 05:05:58;;;;;;;13.10;7.97;;;;;;;16.01;61.70;100006.53;5119149;28;20051;-65
2022/05/02 05:08:24;;;;;;;14.23;7.55;;;;;;;16.12;59.93;100000.66;5120085;28;20110;-65
2022/05/02 05:10:58;;;;;;;13.40;6.32;;;;;;;16.21;59.76;100008.34;5118711;28;20044;-65
2022/05/02 05:13:26;;;;;;;13.38;7.70;;;;;;;16.29;59.49;100008.22;5118856;28;20031;-65
2022/05/02 05:16:34;;;;;;;14.02;7.40;;;;;;;16.53;59.08;100009.66;5115739;28;20038;-65
2022/05/02 05:19:30;;;;;;;15.48;7.03;;;;;;;16.70;58.83;100018.28;5081745;28;20154;-65
2022/05/02 05:22:23;;;;;;;11.23;6.45;;;;;;;16.69;58.38;100021.13;5115961;28;20036;-65
2022/05/02 05:25:09;;;;;;;14.98;6.07;;;;;;;16.33;59.00;100019.34;5117714;28;20107;-65
2022/05/02 05:28:25;;;;;;;9.38;6.25;;;;;;;16.38;58.34;100016.94;5118632;28;20336;-66
2022/05/02 05:31:03;;;;;;;10.45;6.22;;;;;;;15.73;60.18;100019.78;5092676;28;20079;-65
2022/05/02 05:33:41;;;;;;;11.70;6.07;;;;;;;15.78;62.60;100018.22;5116601;28;20229;-65
2022/05/02 05:36:16;;;;;;;13.38;6.85;;;;;;;16.00;62.12;100011.03;5116474;28;20042;-65
2022/05/02 05:38:54;;;;;;;10.60;6.30;;;;;;;15.81;61.29;100009.81;5120562;28;20267;-65
2022/05/02 05:41:56;;;;;;;9.75;5.60;;;;;;;15.82;62.07;100016.00;5118681;28;20038;-65
2022/05/02 05:44:47;;;;;;;13.85;6.25;;;;;;;15.91;62.52;100020.19;5117842;28;20487;-65
2022/05/02 05:47:51;;;;;;;11.27;6.43;;;;;;;15.73;62.35;100023.28;5119688;28;20075;-65
2022/05/02 05:50:27;;;;;;;9.68;5.60;;;;;;;15.85;62.24;100028.97;5119190;28;20340;-66
2022/05/02 05:53:20;;;;;;;12.73;5.63;;;;;;;15.30;64.21;100033.81;5115655;28;20039;-65
2022/05/02 05:56:11;;;;;;;13.85;6.72;;;;;;;14.82;65.89;100029.03;5117769;28;20111;-65
2022/05/02 05:58:50;;;;;;;10.60;5.68;;;;;;;14.94;64.54;100032.88;5118783;28;20067;-65
2022/05/02 06:01:44;;;;;;;9.77;6.20;;;;;;;14.49;67.28;100026.63;5118555;28;20280;-65
2022/05/02 06:04:12;;;;;;;10.60;6.78;;;;;;;14.44;66.48;100022.84;5087861;28;20035;-65
2022/05/02 06:06:39;;;;;;;10.40;6.30;;;;;;;14.34;67.13;100028.41;5119116;28;20296;-65
2022/05/02 06:09:06;;;;;;;9.45;6.35;;;;;;;14.30;68.03;100027.94;5122144;28;20035;-65
2022/05/02 06:11:33;;;;;;;13.48;6.05;;;;;;;14.31;68.66;100034.09;5122185;28;20058;-65
2022/05/02 06:14:01;;;;;;;13.93;7.20;;;;;;;14.36;66.88;100037.03;5122007;28;20221;-65
2022/05/02 06:19:33;;;;;;;13.55;5.60;;;;;;;13.96;68.85;100036.34;5122140;28;20059;-65
2022/05/02 06:22:01;;;;;;;8.35;5.60;;;;;;;13.95;68.67;100040.00;5121084;28;20329;-65
2022/05/02 06:24:30;;;;;;;10.70;5.78;;;;;;;14.11;67.37;100038.25;5122493;28;20090;-65
2022/05/02 06:26:58;;;;;;;11.07;6.03;;;;;;;14.25;67.74;100032.97;5121941;28;20333;-67
2022/05/02 06:29:24;;;;;;;11.05;6.10;;;;;;;14.64;65.89;100035.53;5122217;28;20031;-65
2022/05/02 06:31:54;;;;;;;11.75;5.88;;;;;;;15.05;64.36;100031.59;5121985;28;20035;-65
2022/05/02 06:34:26;;;;;;;11.50;6.03;;;;;;;15.16;63.55;100031.97;5122237;28;20035;-65
2022/05/02 06:37:21;;;;;;;14.63;5.80;;;;;;;15.01;63.93;100028.47;5121853;28;20032;-65
2022/05/02 06:40:17;;;;;;;9.13;5.18;;;;;;;15.43;63.10;100018.97;5118567;28;20266;-65
2022/05/02 06:43:02;;;;;;;9.20;5.03;;;;;;;15.57;62.40;100024.31;5118783;28;20321;-65
2022/05/02 06:45:44;;;;;;;16.05;6.07;;;;;;;15.58;63.29;100011.78;5117604;28;20047;-65
2022/05/02 06:48:27;;;;;;;9.50;5.32;;;;;;;15.71;62.32;100011.97;5103992;28;20102;-65
2022/05/02 06:51:16;;;;;;;9.37;6.57;;;;;;;15.89;60.25;100006.19;5121989;28;20270;-65
2022/05/02 06:54:02;;;;;;;9.98;5.55;;;;;;;15.68;59.11;100022.19;5122008;28;20276;-65
2022/05/02 06:56:45;;;;;;;9.43;5.15;;;;;;;15.21;59.23;100004.75;5125709;28;20222;-65
2022/05/02 06:59:31;;;;;;;10.02;4.80;;;;;;;15.25;58.33;100006.03;5121110;28;20051;-65
2022/05/02 07:02:12;;;;;;;9.05;4.30;;;;;;;15.91;57.73;100001.50;5122218;28;20035;-65
2022/05/02 07:04:54;;;;;;;12.52;4.43;;;;;;;16.29;55.92;100002.06;5125734;28;20126;-65
2022/05/02 07:07:45;;;;;;;10.00;5.05;;;;;;;16.14;56.90;99999.47;5121122;28;20027;-65
2022/05/02 07:10:20;;;;;;;8.52;3.75;;;;;;;16.24;54.21;100002.63;5125545;28;20217;-65
2022/05/02 07:13:13;;;;;;;9.77;4.57;;;;;;;16.23;53.77;100000.97;5125308;28;20031;-65
2022/05/02 07:15:50;;;;;;;11.95;4.22;;;;;;;16.39;51.52;100005.22;5115582;28;20039;-65
2022/05/02 07:18:22;;;;;;;10.93;3.75;;;;;;;16.10;50.42;100011.56;5124200;28;20558;-68
2022/05/02 07:21:18;;;;;;;10.73;4.03;;;;;;;16.57;51.21;99999.41;5125013;28;20059;-65
2022/05/02 07:24:45;;;;;;;14.82;4.47;;;;;;;16.97;50.96;100000.53;5101778;28;20035;-65
2022/05/02 07:27:29;;;;;;;7.63;4.20;;;;;;;16.48;51.08;100006.72;5037653;28;20049;-65
2022/05/02 07:29:58;;;;;;;8.32;4.57;;;;;;;16.06;52.47;100015.63;5042290;28;20041;-65
2022/05/02 07:32:24;;;;;;;14.05;5.50;;;;;;;16.10;53.23;100000.03;5106280;28;20039;-65
2022/05/02 07:34:52;;;;;;;9.55;5.50;;;;;;;15.98;55.25;99989.03;5106548;28;20321;-65
2022/05/02 07:37:20;;;;;;;11.43;5.85;;;;;;;16.20;55.53;99982.66;5125047;28;20056;-65
2022/05/02 07:39:50;;;;;;;12.35;5.40;;;;;;;16.14;54.46;99982.59;5106908;28;20031;-65
2022/05/02 07:42:18;;;;;;;10.38;5.60;;;;;;;16.51;54.25;99974.28;5124909;28;20098;-65
2022/05/02 07:44:46;;;;;;;12.82;4.68;;;;;;;17.27;50.46;99992.25;5124595;28;20030;-65
2022/05/02 07:47:14;;;;;;;6.97;4.72;;;;;;;17.50;50.13;99969.47;5125044;28;20074;-65
2022/05/02 07:49:45;;;;;;;10.98;4.30;;;;;;;17.99;48.50;99960.38;5124935;28;20047;-65
2022/05/02 07:52:24;;;;;;;7.82;4.00;;;;;;;17.88;48.02;99960.16;5124647;28;20036;-65
2022/05/02 07:54:51;;;;;;;6.32;3.47;;;;;;;16.98;47.21;99948.69;5123008;28;20032;-65
2022/05/02 07:57:19;;;;;;;11.20;2.92;;;;;;;17.46;46.14;99951.34;5104615;28;20055;-65
2022/05/02 07:59:49;;;;;;;5.75;3.17;;;;;;;17.38;48.70;99948.84;5124207;28;20038;-65
2022/05/02 08:02:16;;;;;;;8.15;3.22;;;;;;;17.68;46.77;99949.38;5118018;28;20317;-65
2022/05/02 08:04:44;;;;;;;9.43;3.92;;;;;;;17.79;45.75;99944.28;5124353;28;20332;-65
2022/05/02 08:07:15;;;;;;;4.60;2.85;;;;;;;17.52;46.02;99932.63;5118036;28;20076;-65
2022/05/02 08:09:53;;;;;;;6.38;4.20;;;;;;;17.33;47.35;99936.06;5124288;28;20024;-65
2022/05/02 08:12:39;;;;;;;8.02;3.63;;;;;;;17.76;46.04;99920.56;5123910;28;20027;-65
2022/05/02 08:15:19;;;;;;;6.40;2.97;;;;;;;17.89;46.09;99922.44;5123936;28;20032;-65
2022/05/02 08:18:00;;;;;;;7.30;3.53;;;;;;;18.06;46.26;99918.31;5106034;28;20031;-65
2022/05/02 08:20:34;;;;;;;5.70;3.25;;;;;;;18.05;47.90;99914.00;5100764;28;20031;-65
2022/05/02 08:30:05;;;;;;;6.78;4.38;;;;;;;17.58;49.33;99887.31;5118507;28;20084;-65
2022/05/02 08:32:40;;;;;;;10.32;4.10;;;;;;;17.80;49.39;99892.34;5041283;28;20033;-65
2022/05/02 08:35:23;;;;;;;6.90;4.00;;;;;;;18.26;48.66;99901.41;5113969;28;20036;-65
2022/05/02 08:38:20;;;;;;;6.70;3.65;;;;;;;18.32;48.00;99901.41;5119813;28;20031;-65
2022/05/02 08:41:09;;;;;;;7.45;4.00;;;;;;;18.59;47.83;99901.34;5105493;28;20054;-65
2022/05/02 08:43:58;;;;;;;6.50;3.30;;;;;;;18.24;47.74;99898.94;5122779;28;20097;-65
2022/05/02 08:47:00;;;;;;;7.50;3.17;;;;;;;18.30;48.94;99902.63;5123861;28;20027;-65
2022/05/02 08:49:44;;;;;;;13.05;3.85;;;;;;;18.13;48.77;99880.81;5123494;28;20098;-65
2022/05/02 08:52:21;;;;;;;10.80;3.47;;;;;;;18.33;51.09;99895.00;5123503;28;20058;-65
2022/05/02 08:55:19;;;;;;;6.57;3.70;;;;;;;18.46;49.38;99884.25;5119824;28;20028;-65
2022/05/02 08:58:23;;;;;;;8.65;3.45;;;;;;;18.67;49.02;99891.25;5086771;28;20039;-65
2022/05/02 09:01:17;;;;;;;14.05;3.20;;;;;;;18.76;48.76;99878.47;5113168;28;20047;-65
2022/05/02 09:03:43;;;;;;;5.47;3.28;;;;;;;19.32;49.02;99870.56;5116821;28;20040;-65
2022/05/02 09:06:30;;;;;;;8.55;3.15;;;;;;;18.73;47.02;99881.56;5123042;28;20334;-65
2022/05/02 09:09:22;;;;;;;5.47;2.88;;;;;;;19.06;46.29;99866.16;5119533;28;20116;-65
2022/05/02 09:12:09;;;;;;;5.47;3.28;;;;;;;19.16;46.76;99860.31;5122007;28;20149;-65
2022/05/02 09:14:44;;;;;;;7.07;2.83;;;;;;;19.21;45.56;99857.00;5118545;28;20077;-65
2022/05/02 09:17:52;;;;;;;4.38;2.70;;;;;;;19.17;44.59;99863.81;5122912;28;20053;-65
2022/05/02 09:20:20;;;;;;;7.07;3.00;;;;;;;19.25;46.28;99880.50;5117912;28;20023;-65
2022/05/02 09:23:02;;;;;;;5.25;2.85;;;;;;;19.04;45.17;99872.78;5123099;28;20035;-65
2022/05/02 09:25:45;;;;;;;4.97;2.42;;;;;;;19.30;44.09;99853.84;5119929;28;20019;-65
2022/05/02 09:28:38;;;;;;;5.70;3.10;;;;;;;19.35;46.36;99855.88;5119411;28;20027;-65
2022/05/02 09:31:20;;;;;;;8.95;2.70;;;;;;;19.38;45.94;99861.63;5095839;28;20039;-65
2022/05/02 09:33:50;;;;;;;4.82;2.40;;;;;;;18.96;45.18;99868.47;5119754;27;20024;-65
2022/05/02 09:36:26;;;;;;;5.78;2.40;;;;;;;19.06;42.69;99851.91;5118809;28;20332;-65
2022/05/02 09:39:03;;;;;;;5.82;2.58;;;;;;;19.22;43.12;99853.25;5118447;28;20028;-65
2022/05/02 09:42:00;;;;;;;6.13;2.40;;;;;;;19.25;44.93;99859.03;5115909;28;20098;-66
2022/05/02 09:51:11;;;;;;;5.72;2.10;;;;;;;19.22;42.48;99850.59;5121731;28;20034;-65
2022/05/02 09:53:49;;;;;;;4.63;2.13;;;;;;;19.06;43.90;99843.84;5111582;28;20096;-65
2022/05/02 09:56:38;;;;;;;17.65;2.83;;;;;;;19.29;45.53;99833.41;5119254;28;20336;-65
2022/05/02 09:59:23;;;;;;;4.38;2.38;;;;;;;19.02;44.29;99848.00;5115827;28;20089;-66
2022/05/02 10:02:09;;;;;;;5.53;2.05;;;;;;;19.12;42.74;99846.50;5116139;28;20024;-66
2022/05/02 10:05:08;;;;;;;5.75;2.20;;;;;;;19.54;42.02;99825.41;5118568;28;20047;-65
2022/05/02 10:07:41;;;;;;;6.50;2.22;;;;;;;19.93;41.25;99821.59;5116697;28;20055;-65
2022/05/02 10:10:27;;;;;;;7.03;2.47;;;;;;;19.51;41.03;99819.63;5119244;28;20089;-65
2022/05/02 10:13:07;;;;;;;6.88;1.75;;;;;;;19.35;40.33;99818.28;5118566;28;20062;-66
2022/05/02 10:16:04;;;;;;;7.20;1.88;;;;;;;19.29;39.76;99808.41;5118430;28;20318;-66
2022/05/02 10:18:41;;;;;;;4.43;1.92;;;;;;;19.05;37.81;99815.38;5116819;28;20357;-65
2022/05/02 10:21:22;;;;;;;2.92;2.00;;;;;;;18.94;41.17;99805.31;5116722;28;20028;-65
2022/05/02 10:24:07;;;;;;;6.93;2.28;;;;;;;19.05;39.18;99794.72;5120200;28;20070;-65
2022/05/02 10:26:55;;;;;;;4.95;2.15;;;;;;;19.49;39.56;99797.53;5121300;28;20036;-65
2022/05/02 10:29:45;;;;;;;5.50;2.25;;;;;;;19.26;40.52;99795.41;5119224;28;20263;-65
2022/05/02 10:32:46;;;;;;;4.53;2.08;;;;;;;19.44;39.99;99793.63;5121962;28;20027;-65
2022/05/02 10:35:17;;;;;;;3.67;1.98;;;;;;;18.69;41.44;99781.88;5119154;28;20055;-65
2022/05/02 10:38:00;;;;;;;4.57;2.30;;;;;;;18.97;40.73;99776.19;5120763;28;20028;-65
2022/05/02 10:57:43;;;;;;;4.53;2.28;;;;;;;18.97;40.91;99748.53;5120234;28;20085;-65
2022/05/02 11:00:10;;;;;;;3.78;2.10;;;;;;;18.77;41.85;99738.75;5120024;27;20034;-65
2022/05/02 11:03:06;;;;;;;4.28;1.95;;;;;;;18.46;40.31;99742.16;5122046;28;20038;-65
2022/05/02 11:05:58;;;;;;;8.95;2.40;;;;;;;18.62;39.74;99751.59;5120284;28;20027;-66
2022/05/02 11:08:35;;;;;;;4.57;2.20;;;;;;;18.55;42.27;99747.28;5120666;28;20331;-65
2022/05/02 11:11:06;;;;;;;3.90;2.25;;;;;;;18.79;41.57;99752.78;5120565;27;20035;-65
2022/05/02 11:13:51;;;;;;;4.22;2.10;;;;;;;18.98;40.90;99742.13;5120262;28;20081;-65
2022/05/02 11:16:36;;;;;;;8.38;2.75;;;;;;;18.98;40.15;99734.91;5119749;28;20333;-65
2022/05/02 11:22:29;;;;;;;4.93;2.20;;;;;;;19.00;42.09;99740.88;5120115;27;20038;-65
2022/05/02 11:25:06;;;;;;;6.45;2.28;;;;;;;19.11;41.54;99744.72;5118971;28;20023;-65
2022/05/02 11:27:50;;;;;;;4.72;2.53;;;;;;;18.91;40.74;99747.53;5118602;28;20042;-65
2022/05/02 11:30:22;;;;;;;5.25;2.10;;;;;;;18.95;41.46;99747.94;5120951;28;20091;-65
2022/05/02 11:33:16;;;;;;;5.05;2.58;;;;;;;18.97;43.38;99740.50;5121621;28;20325;-65
2022/05/02 11:35:48;;;;;;;5.00;2.42;;;;;;;18.98;40.79;99742.97;5117576;28;20042;-65
2022/05/02 11:38:36;;;;;;;2.70;1.85;;;;;;;19.14;40.87;99763.91;5121493;28;20073;-65
2022/05/02 11:41:04;;;;;;;4.85;2.10;;;;;;;18.43;41.55;99763.22;5121410;28;20224;-65
2022/05/02 11:43:31;;;;;;;5.15;1.92;;;;;;;18.19;43.62;99746.78;5121765;28;20046;-65
2022/05/02 11:46:18;;;;;;;5.18;2.40;;;;;;;18.13;42.67;99754.84;5121509;28;20043;-65
2022/05/02 11:49:14;;;;;;;2.60;1.92;;;;;;;18.04;42.23;99764.16;5122006;28;20308;-66
2022/05/02 11:51:47;;;;;;;4.32;2.10;;;;;;;17.96;41.44;99756.34;5120336;28;20106;-65
2022/05/02 11:54:28;;;;;;;7.97;2.55;;;;;;;17.82;42.49;99755.56;5118256;28;20103;-66
2022/05/02 11:57:04;;;;;;;6.35;2.00;;;;;;;17.88;43.07;99775.31;5120331;28;20092;-66
2022/05/02 11:59:44;;;;;;;2.80;2.22;;;;;;;18.04;43.00;99762.31;5121263;28;20032;-66
2022/05/02 12:02:32;;;;;;;5.60;2.33;;;;;;;18.11;43.19;99764.97;5119885;27;20028;-66
2022/05/02 12:05:04;;;;;;;4.72;2.22;;;;;;;18.12;41.55;99751.34;5113789;28;20065;-66
2022/05/02 12:07:32;;;;;;;6.88;2.08;;;;;;;17.98;41.03;99763.13;5121210;28;20055;-65
2022/05/02 12:10:09;;;;;;;4.20;2.35;;;;;;;18.12;42.33;99737.13;5119940;28;20247;-66
2022/05/02 12:12:35;;;;;;;6.50;2.55;;;;;;;18.14;43.13;99743.94;5117929;28;20034;-66
2022/05/02 12:15:10;;;;;;;5.57;2.53;;;;;;;18.31;42.79;99741.59;5102269;28;20217;-66
2022/05/02 12:17:55;;;;;;;6.43;2.30;;;;;;;18.40;43.04;99728.78;5121065;28;20039;-66
2022/05/02 12:20:29;;;;;;;3.22;1.95;;;;;;;18.39;42.16;99725.28;5120079;28;20027;-66
2022/05/02 12:23:10;;;;;;;;;;;;;;;18.28;42.11;99733.97;5121184;28;20237;-66
2022/05/02 12:25:50;;;;;;;4.35;2.45;;;;;;;18.32;42.41;99731.69;5120508;28;20152;-66
2022/05/02 12:28:20;;;;;;;6.20;2.80;;;;;;;18.19;41.70;99727.22;5120811;28;20344;-66
2022/05/02 12:30:56;;;;;;;3.53;2.30;;;;;;;18.23;42.05;99722.25;5119902;28;20309;-66
2022/05/02 12:33:23;;;;;;;4.47;2.40;;;;;;;18.32;44.33;99708.41;5117878;28;20024;-66
2022/05/02 12:35:51;;;;;;;3.05;2.00;;;;;;;18.40;41.54;99708.16;5120852;28;20081;-66
2022/05/02 12:38:24;;;;;;;7.05;2.20;;;;;;;18.31;42.31;99711.28;5120505;28;20049;-66
2022/05/02 12:41:01;;;;;;;6.73;2.43;;;;;;;18.12;42.73;99710.34;5119238;28;20111;-66